Time;durP1;ratioP1;P1;durP2;ratioP2;P2;SDS_P1;SDS_P2;PMS_P1;PMS_P2;Temp;Humidity;BMP_temperature;BMP_pressure;BME280_temperature;BME280_humidity;BME280_pressure;Samples;Min_cycle;Max_cycle;Signal;HPM_P1;HPM_P2
2023/03/28 00:01:50;;;;;;;2.70;0.40;;;2.90;99.90;;;;;;4779445;30;20044;-82
2023/03/28 00:04:21;;;;;;;4.72;0.47;;;2.80;99.90;;;;;;4767076;30;20073;-82
2023/03/28 00:06:47;;;;;;;1.20;0.30;;;3.50;99.90;;;;;;4771843;30;20457;-82
2023/03/28 00:09:13;;;;;;;3.00;0.60;;;2.80;99.90;;;;;;4762444;30;20047;-82
2023/03/28 00:11:39;;;;;;;2.05;0.40;;;3.10;99.90;;;;;;4763065;30;20189;-82
2023/03/28 00:14:07;;;;;;;1.67;0.40;;;2.70;99.90;;;;;;4751322;30;20412;-82
2023/03/28 00:16:38;;;;;;;3.33;0.50;;;3.10;99.90;;;;;;4777292;30;20510;-81
2023/03/28 00:19:08;;;;;;;5.25;0.57;;;2.70;99.90;;;;;;4776581;30;20118;-81
2023/03/28 00:21:36;;;;;;;4.60;0.70;;;2.60;99.90;;;;;;4766735;30;20085;-82
2023/03/28 00:24:05;;;;;;;3.92;0.60;;;2.70;99.90;;;;;;4765600;30;20070;-82
2023/03/28 00:26:34;;;;;;;2.60;0.43;;;2.70;99.90;;;;;;4757497;30;20055;-81
2023/03/28 00:29:02;;;;;;;2.95;0.60;;;2.70;99.90;;;;;;4757661;30;20131;-82
2023/03/28 00:31:29;;;;;;;4.53;0.57;;;2.70;99.90;;;;;;4778511;30;20046;-82
2023/03/28 00:33:56;;;;;;;3.20;0.70;;;2.80;99.90;;;;;;4777127;30;20055;-83
2023/03/28 00:36:25;;;;;;;3.90;0.68;;;2.80;99.90;;;;;;4776848;30;20046;-81
2023/03/28 00:39:06;;;;;;;5.20;0.70;;;2.80;99.90;;;;;;4766597;30;20502;-82
2023/03/28 00:41:35;;;;;;;6.22;0.90;;;2.90;99.90;;;;;;4765258;30;20093;-82
2023/03/28 00:44:21;;;;;;;5.25;0.50;;;3.40;99.90;;;;;;4772400;30;20070;-82
2023/03/28 00:46:47;;;;;;;1.92;0.40;;;2.90;99.90;;;;;;4755204;30;20074;-83
2023/03/28 00:49:25;;;;;;;4.32;0.65;;;2.90;99.90;;;;;;4754604;30;20054;-82
2023/03/28 00:52:00;;;;;;;11.55;0.70;;;2.90;99.90;;;;;;4773020;30;20470;-82
2023/03/28 00:54:29;;;;;;;8.75;0.60;;;2.90;99.90;;;;;;4773149;30;20048;-82
2023/03/28 00:57:00;;;;;;;2.08;0.47;;;3.00;99.90;;;;;;4769875;30;20055;-82
2023/03/28 00:59:30;;;;;;;2.72;0.50;;;3.70;99.90;;;;;;4772651;30;20067;-82
2023/03/28 01:01:56;;;;;;;3.58;0.40;;;3.90;99.90;;;;;;4769782;30;20115;-82
2023/03/28 01:04:26;;;;;;;2.17;0.38;;;2.80;99.90;;;;;;4776676;30;20127;-82
2023/03/28 01:06:55;;;;;;;3.50;0.40;;;2.70;99.90;;;;;;4782933;30;20482;-81
2023/03/28 01:09:25;;;;;;;1.98;0.32;;;2.70;99.90;;;;;;4779631;30;20108;-82
2023/03/28 01:11:53;;;;;;;1.42;0.20;;;2.60;99.90;;;;;;4773577;30;20055;-82
2023/03/28 01:14:21;;;;;;;1.58;0.40;;;2.50;99.90;;;;;;4775291;30;20052;-81
2023/03/28 01:16:48;;;;;;;1.30;0.30;;;2.50;99.90;;;;;;4777212;30;20058;-82
2023/03/28 01:19:25;;;;;;;1.48;0.85;;;2.50;99.90;;;;;;4780738;30;20047;-82
2023/03/28 01:22:07;;;;;;;1.38;0.38;;;2.40;99.90;;;;;;4773289;30;20154;-82
2023/03/28 01:25:09;;;;;;;2.65;0.30;;;2.30;99.90;;;;;;4766612;30;20059;-82
2023/03/28 01:27:37;;;;;;;1.10;0.20;;;2.20;99.90;;;;;;4755731;30;20404;-81
2023/03/28 01:30:22;;;;;;;0.80;0.30;;;2.20;99.90;;;;;;4781147;30;20497;-81
2023/03/28 01:32:50;;;;;;;1.33;0.28;;;2.10;99.90;;;;;;4767600;30;20413;-82
2023/03/28 01:35:25;;;;;;;0.63;0.20;;;2.10;99.90;;;;;;4772478;30;20052;-81
2023/03/28 01:38:20;;;;;;;3.77;0.40;;;2.00;99.90;;;;;;4767421;30;20417;-81
2023/03/28 01:41:07;;;;;;;3.17;0.20;;;1.90;99.90;;;;;;4697094;30;20416;-81
2023/03/28 01:43:47;;;;;;;1.08;0.30;;;1.80;99.90;;;;;;4710438;30;20152;-81
2023/03/28 01:46:15;;;;;;;0.85;0.30;;;1.80;99.90;;;;;;4717436;30;20432;-82
2023/03/28 01:49:06;;;;;;;3.75;0.22;;;1.70;99.90;;;;;;4717461;30;20060;-82
2023/03/28 01:51:40;;;;;;;1.70;0.20;;;1.60;99.90;;;;;;4701954;30;20068;-82
2023/03/28 01:54:28;;;;;;;1.60;0.30;;;1.60;99.90;;;;;;4702902;30;20060;-81
2023/03/28 01:57:16;;;;;;;2.80;0.28;;;1.50;99.90;;;;;;4702672;30;20067;-82
2023/03/28 02:00:01;;;;;;;1.67;0.30;;;1.40;99.90;;;;;;4710059;30;20177;-82
2023/03/28 02:02:48;;;;;;;2.92;0.20;;;1.30;99.90;;;;;;4716724;30;20456;-82
2023/03/28 02:05:18;;;;;;;0.40;0.20;;;1.30;99.90;;;;;;4702913;30;20064;-82
2023/03/28 02:07:45;;;;;;;4.75;0.30;;;1.20;99.90;;;;;;4716494;30;20547;-81
2023/03/28 02:10:13;;;;;;;2.40;0.25;;;1.20;99.90;;;;;;4717079;30;20156;-81
2023/03/28 02:12:51;;;;;;;1.80;0.40;;;1.10;99.90;;;;;;4702222;30;20496;-81
2023/03/28 02:15:20;;;;;;;1.60;0.30;;;1.10;99.90;;;;;;4717344;30;20057;-82
2023/03/28 02:17:55;;;;;;;3.83;0.52;;;1.00;99.90;;;;;;4751139;30;20086;-81
2023/03/28 02:20:23;;;;;;;3.65;0.40;;;1.00;99.90;;;;;;4771074;30;20127;-81
2023/03/28 02:23:01;;;;;;;4.45;0.50;;;1.00;99.90;;;;;;4771047;30;20126;-81
2023/03/28 02:25:28;;;;;;;2.45;0.38;;;1.00;99.90;;;;;;4773737;30;20043;-81
2023/03/28 02:28:00;;;;;;;0.40;0.22;;;0.90;99.90;;;;;;4771578;30;20039;-82
2023/03/28 02:30:26;;;;;;;1.23;0.32;;;0.90;99.90;;;;;;4771296;30;20092;-81
2023/03/28 02:33:02;;;;;;;3.00;0.40;;;0.80;99.90;;;;;;4758994;30;20054;-81
2023/03/28 02:36:12;;;;;;;1.30;0.40;;;0.80;99.90;;;;;;4773221;30;20040;-81
2023/03/28 02:38:46;;;;;;;1.55;0.30;;;0.80;99.90;;;;;;4770209;30;20470;-81
2023/03/28 02:41:21;;;;;;;2.25;0.60;;;0.80;99.90;;;;;;4760538;30;20050;-81
2023/03/28 02:44:20;;;;;;;2.00;0.60;;;0.70;99.90;;;;;;4772074;30;20060;-82
2023/03/28 02:46:54;;;;;;;2.60;0.35;;;0.70;99.90;;;;;;4755048;30;20316;-82
2023/03/28 02:49:45;;;;;;;1.05;0.32;;;0.70;99.90;;;;;;4765203;30;20051;-82
2023/03/28 02:52:23;;;;;;;2.13;0.40;;;1.30;99.90;;;;;;4766756;30;20036;-82
2023/03/28 02:54:51;;;;;;;2.15;0.40;;;0.60;99.90;;;;;;4770586;30;20186;-82
2023/03/28 02:57:40;;;;;;;1.55;0.20;;;1.00;99.90;;;;;;4771116;30;20039;-82
2023/03/28 03:00:10;;;;;;;0.82;0.30;;;0.60;99.90;;;;;;4759973;30;20059;-82
2023/03/28 03:02:38;;;;;;;0.35;0.30;;;0.60;99.90;;;;;;4763882;30;20129;-82
2023/03/28 03:05:04;;;;;;;2.22;0.47;;;0.50;99.90;;;;;;4777141;30;20056;-82
2023/03/28 03:07:31;;;;;;;1.33;0.20;;;0.50;99.90;;;;;;4773226;30;20172;-82
2023/03/28 03:09:56;;;;;;;0.88;0.20;;;0.50;99.90;;;;;;4777872;30;20086;-82
2023/03/28 03:12:22;;;;;;;0.82;0.20;;;0.40;99.90;;;;;;4770230;30;20082;-83
2023/03/28 03:14:49;;;;;;;1.90;0.20;;;0.40;99.90;;;;;;4770639;30;20055;-82
2023/03/28 03:17:19;;;;;;;0.68;0.40;;;0.40;99.90;;;;;;4771370;30;20040;-82
2023/03/28 03:19:45;;;;;;;1.27;0.20;;;1.10;99.90;;;;;;4770392;30;20052;-82
2023/03/28 03:22:11;;;;;;;5.20;0.60;;;0.40;99.90;;;;;;4770775;30;20047;-82
2023/03/28 03:24:37;;;;;;;3.25;0.40;;;0.40;99.90;;;;;;4768460;30;20074;-82
2023/03/28 03:27:03;;;;;;;0.80;0.30;;;0.30;99.90;;;;;;4761564;30;20513;-82
2023/03/28 03:29:29;;;;;;;0.88;0.30;;;0.40;99.90;;;;;;4767464;30;20055;-82
2023/03/28 03:31:54;;;;;;;0.32;0.25;;;0.30;99.90;;;;;;4771505;30;20067;-82
2023/03/28 03:34:20;;;;;;;1.55;0.28;;;0.30;99.90;;;;;;4766052;30;20401;-82
2023/03/28 03:36:46;;;;;;;0.60;0.20;;;0.60;99.90;;;;;;4757523;30;20402;-82
2023/03/28 03:39:12;;;;;;;0.22;0.22;;;0.50;99.90;;;;;;4764035;30;20112;-82
2023/03/28 03:41:37;;;;;;;4.53;0.20;;;0.20;99.90;;;;;;4773477;30;20470;-82
2023/03/28 03:44:03;;;;;;;1.67;0.20;;;0.20;99.90;;;;;;4769986;30;20098;-82
2023/03/28 03:46:29;;;;;;;0.75;0.20;;;0.20;99.90;;;;;;4770782;30;20105;-82
2023/03/28 03:48:54;;;;;;;3.25;0.30;;;0.20;99.90;;;;;;4769780;30;20052;-81
2023/03/28 03:51:20;;;;;;;1.55;0.40;;;0.20;99.90;;;;;;4776375;30;20087;-82
2023/03/28 03:53:49;;;;;;;1.45;0.35;;;0.20;99.90;;;;;;4767765;30;20057;-83
2023/03/28 03:56:15;;;;;;;1.25;0.30;;;0.20;99.90;;;;;;4767514;30;20047;-81
2023/03/28 03:58:41;;;;;;;1.13;0.30;;;0.10;99.90;;;;;;4770012;30;20134;-82
2023/03/28 04:01:08;;;;;;;0.98;0.30;;;0.10;99.90;;;;;;4738856;30;20071;-82
2023/03/28 04:03:34;;;;;;;3.08;0.40;;;0.90;99.90;;;;;;4766533;30;20090;-82
2023/03/28 04:06:00;;;;;;;1.63;0.30;;;0.10;99.90;;;;;;4769379;30;20082;-82
2023/03/28 04:08:26;;;;;;;0.85;0.30;;;0.10;99.90;;;;;;4770685;30;20043;-82
2023/03/28 04:10:52;;;;;;;0.88;0.38;;;0.10;99.90;;;;;;4761598;30;20051;-82
2023/03/28 04:13:18;;;;;;;1.33;0.30;;;0.50;99.90;;;;;;4769617;30;20052;-82
2023/03/28 04:15:46;;;;;;;0.80;0.28;;;0.00;99.90;;;;;;4766847;30;20050;-82
2023/03/28 04:18:14;;;;;;;0.28;0.20;;;0.00;99.90;;;;;;4771440;30;20190;-82
2023/03/28 04:20:40;;;;;;;0.88;0.30;;;0.00;99.90;;;;;;4761341;30;20051;-82
2023/03/28 04:23:07;;;;;;;0.93;0.20;;;0.00;99.90;;;;;;4769209;30;20082;-81
2023/03/28 04:25:33;;;;;;;3.95;0.40;;;0.00;99.90;;;;;;4769525;30;20056;-81
2023/03/28 04:28:00;;;;;;;0.20;0.15;;;0.00;99.90;;;;;;4770482;30;20040;-81
2023/03/28 04:30:26;;;;;;;0.82;0.25;;;0.00;99.90;;;;;;4764021;30;20103;-82
2023/03/28 04:32:53;;;;;;;0.88;0.30;;;-0.10;99.90;;;;;;4755586;30;20051;-82
2023/03/28 04:35:19;;;;;;;3.80;0.40;;;-0.10;99.90;;;;;;4769816;30;20067;-82
2023/03/28 04:37:46;;;;;;;0.43;0.20;;;-0.10;99.90;;;;;;4759279;30;20185;-82
2023/03/28 04:40:14;;;;;;;0.88;0.40;;;-0.10;99.90;;;;;;4770914;30;20048;-82
2023/03/28 04:42:41;;;;;;;3.03;0.40;;;-0.10;99.90;;;;;;4764086;30;20063;-83
2023/03/28 04:45:07;;;;;;;1.08;0.20;;;-0.20;99.90;;;;;;4770525;30;20055;-82
2023/03/28 04:47:36;;;;;;;1.10;0.40;;;-0.10;99.90;;;;;;4757465;30;20091;-82
2023/03/28 04:50:02;;;;;;;1.75;0.57;;;-0.20;99.90;;;;;;4778869;30;20131;-81
2023/03/28 04:52:28;;;;;;;0.95;0.40;;;-0.20;99.90;;;;;;4756398;30;20197;-81
2023/03/28 04:54:54;;;;;;;0.85;0.25;;;-0.20;99.90;;;;;;4773465;30;20450;-82
2023/03/28 04:57:20;;;;;;;0.95;0.40;;;-0.20;99.90;;;;;;4756500;30;20391;-82
2023/03/28 04:59:46;;;;;;;2.05;0.30;;;-0.20;99.90;;;;;;4774494;30;20066;-82
2023/03/28 05:02:11;;;;;;;2.60;0.30;;;-0.20;99.90;;;;;;4776318;30;20485;-82
2023/03/28 05:04:39;;;;;;;2.03;0.30;;;-0.20;99.90;;;;;;4768671;30;20135;-82
2023/03/28 05:07:04;;;;;;;1.52;0.40;;;-0.30;99.90;;;;;;4766480;30;20126;-83
2023/03/28 05:09:30;;;;;;;2.63;0.40;;;-0.30;99.90;;;;;;4771839;30;20445;-82
2023/03/28 05:11:56;;;;;;;0.95;0.30;;;-0.30;99.90;;;;;;4773861;30;20537;-82
2023/03/28 05:14:21;;;;;;;0.75;0.40;;;-0.30;99.90;;;;;;4759853;30;20067;-82
2023/03/28 05:16:47;;;;;;;0.52;0.40;;;-0.20;99.90;;;;;;4776598;30;20046;-83
2023/03/28 05:19:13;;;;;;;0.95;0.40;;;-0.30;99.90;;;;;;4768810;30;20048;-82
2023/03/28 05:21:39;;;;;;;1.75;0.30;;;0.70;99.90;;;;;;4769485;30;20116;-82
2023/03/28 05:24:07;;;;;;;2.83;0.40;;;-0.20;99.90;;;;;;4769774;30;20058;-82
2023/03/28 05:26:33;;;;;;;2.83;0.40;;;-0.20;99.90;;;;;;4769556;30;20091;-82
2023/03/28 05:28:59;;;;;;;1.90;0.30;;;-0.30;99.90;;;;;;4765021;30;20122;-83
2023/03/28 05:31:27;;;;;;;3.00;0.40;;;-0.30;99.90;;;;;;4777344;30;20526;-81
2023/03/28 05:33:54;;;;;;;1.50;0.38;;;-0.30;99.90;;;;;;4769657;30;20054;-82
2023/03/28 05:36:20;;;;;;;4.88;0.55;;;-0.30;99.90;;;;;;4771828;30;20422;-82
2023/03/28 05:38:45;;;;;;;0.85;0.30;;;-0.20;99.90;;;;;;4762111;30;20040;-82
2023/03/28 05:41:11;;;;;;;1.75;0.30;;;-0.20;99.90;;;;;;4772770;30;20048;-82
2023/03/28 05:43:37;;;;;;;2.53;0.30;;;-0.20;99.90;;;;;;4765043;30;20524;-84
2023/03/28 05:46:02;;;;;;;0.60;0.30;;;1.00;99.90;;;;;;4772927;30;20051;-85
2023/03/28 05:48:28;;;;;;;1.85;0.40;;;-0.10;99.90;;;;;;4773793;30;20047;-84
2023/03/28 05:50:54;;;;;;;1.40;0.20;;;-0.30;99.90;;;;;;4773090;30;20043;-86
2023/03/28 05:53:19;;;;;;;2.72;0.43;;;0.00;99.90;;;;;;4773104;30;20047;-84
2023/03/28 05:55:45;;;;;;;2.30;0.22;;;1.60;99.90;;;;;;4773092;30;20468;-84
2023/03/28 05:58:11;;;;;;;2.00;0.20;;;1.00;99.90;;;;;;4772174;30;20051;-84
2023/03/28 06:00:37;;;;;;;2.15;0.40;;;1.20;99.90;;;;;;4780151;30;20418;-88
2023/03/28 06:03:04;;;;;;;2.25;0.22;;;0.80;99.90;;;;;;4772665;30;20044;-85
2023/03/28 06:05:30;;;;;;;1.23;0.40;;;-0.30;99.90;;;;;;4771668;30;20541;-82
2023/03/28 06:07:56;;;;;;;1.65;0.43;;;1.70;99.90;;;;;;4771800;30;20042;-84
2023/03/28 06:10:23;;;;;;;1.17;0.40;;;1.40;99.90;;;;;;4756096;30;20059;-84
2023/03/28 06:12:48;;;;;;;3.65;0.38;;;0.30;99.90;;;;;;4770620;30;20131;-84
2023/03/28 06:15:14;;;;;;;1.85;0.40;;;0.40;99.90;;;;;;4771087;30;20562;-84
2023/03/28 06:17:42;;;;;;;3.05;0.55;;;1.10;99.90;;;;;;4771664;30;20091;-85
2023/03/28 06:20:08;;;;;;;2.50;0.40;;;1.80;99.90;;;;;;4766233;30;20051;-85
2023/03/28 06:22:35;;;;;;;3.00;0.40;;;0.70;99.90;;;;;;4764493;30;20048;-84
2023/03/28 06:25:02;;;;;;;1.98;0.50;;;0.60;99.90;;;;;;4772800;30;20044;-83
2023/03/28 06:27:28;;;;;;;0.80;0.30;;;1.50;99.90;;;;;;4773887;30;20123;-84
2023/03/28 06:29:54;;;;;;;1.05;0.40;;;2.00;99.90;;;;;;4775814;30;20127;-83
2023/03/28 06:32:20;;;;;;;2.45;0.40;;;1.70;99.90;;;;;;4771339;30;20047;-83
2023/03/28 06:34:46;;;;;;;1.27;0.40;;;2.60;99.90;;;;;;4771844;30;20075;-84
2023/03/28 06:37:12;;;;;;;0.28;0.20;;;1.60;99.90;;;;;;4778405;30;20132;-84
2023/03/28 06:39:38;;;;;;;0.85;0.40;;;1.60;99.90;;;;;;4769001;30;20043;-84
2023/03/28 06:42:04;;;;;;;0.90;0.28;;;1.80;99.90;;;;;;4771566;30;20043;-84
2023/03/28 06:44:30;;;;;;;3.42;0.40;;;3.00;99.90;;;;;;4761855;30;20051;-84
2023/03/28 06:46:56;;;;;;;2.40;0.65;;;2.20;99.90;;;;;;4778113;30;20052;-88
2023/03/28 06:49:22;;;;;;;0.63;0.30;;;2.00;99.90;;;;;;4778285;30;20047;-83
2023/03/28 06:51:47;;;;;;;0.40;0.20;;;2.50;99.90;;;;;;4763129;30;20055;-83
2023/03/28 06:54:13;;;;;;;1.65;0.40;;;2.80;99.90;;;;;;4776593;30;20058;-84
2023/03/28 06:56:39;;;;;;;3.03;0.50;;;2.20;99.90;;;;;;4771618;30;20056;-85
2023/03/28 06:59:05;;;;;;;1.85;0.50;;;3.40;99.90;;;;;;4774178;30;20050;-83
2023/03/28 07:01:30;;;;;;;5.97;0.40;;;3.30;99.90;;;;;;4761731;30;20055;-83
2023/03/28 07:03:58;;;;;;;0.98;0.40;;;1.90;99.90;;;;;;4778333;30;20058;-83
2023/03/28 07:06:25;;;;;;;3.72;0.52;;;3.60;99.90;;;;;;4771359;30;20146;-83
2023/03/28 07:08:51;;;;;;;3.20;0.50;;;2.30;99.90;;;;;;4770956;30;20044;-82
2023/03/28 07:11:17;;;;;;;5.70;0.60;;;2.20;99.90;;;;;;4766181;30;20051;-83
2023/03/28 07:13:43;;;;;;;4.53;0.75;;;3.30;99.90;;;;;;4771300;30;20532;-83
2023/03/28 07:16:14;;;;;;;4.68;0.50;;;2.40;99.90;;;;;;4755476;30;20055;-82
2023/03/28 07:18:40;;;;;;;2.38;0.70;;;2.50;99.90;;;;;;4761660;30;20047;-86
2023/03/28 07:21:08;;;;;;;3.33;0.43;;;2.70;99.90;;;;;;4768573;30;20062;-83
2023/03/28 07:23:34;;;;;;;6.38;0.60;;;2.70;99.90;;;;;;4777383;30;20123;-83
2023/03/28 07:26:00;;;;;;;1.92;0.50;;;3.80;99.90;;;;;;4770758;30;20055;-84
2023/03/28 07:28:26;;;;;;;2.80;0.55;;;4.00;99.90;;;;;;4770845;30;20444;-82
2023/03/28 07:30:55;;;;;;;2.38;0.50;;;3.40;99.90;;;;;;4771046;30;20124;-88
2023/03/28 07:33:21;;;;;;;5.05;0.60;;;3.40;99.90;;;;;;4773146;30;20050;-86
2023/03/28 07:35:47;;;;;;;4.72;0.70;;;3.60;99.90;;;;;;4770480;30;20063;-88
2023/03/28 07:38:12;;;;;;;0.98;0.40;;;5.20;99.90;;;;;;4771009;30;20111;-85
2023/03/28 07:40:38;;;;;;;2.40;0.40;;;4.90;99.90;;;;;;4771083;30;20574;-84
2023/03/28 07:43:04;;;;;;;1.55;0.40;;;3.00;99.90;;;;;;4771077;30;20134;-82
2023/03/28 07:45:30;;;;;;;6.70;0.60;;;4.40;99.90;;;;;;4755476;30;20100;-86
2023/03/28 07:47:56;;;;;;;5.20;1.17;;;5.80;99.90;;;;;;4770972;30;20055;-84
2023/03/28 07:50:21;;;;;;;2.90;0.50;;;4.30;99.90;;;;;;4755226;30;20051;-84
2023/03/28 07:52:48;;;;;;;3.80;0.55;;;6.30;99.90;;;;;;4754779;30;20055;-84
2023/03/28 07:55:13;;;;;;;2.92;0.60;;;6.00;99.90;;;;;;4770771;30;20048;-84
2023/03/28 07:57:40;;;;;;;2.25;0.90;;;5.50;99.90;;;;;;4754795;30;20063;-83
2023/03/28 08:00:11;;;;;;;1.80;0.52;;;5.00;99.90;;;;;;4754433;30;20055;-83
2023/03/28 08:02:39;;;;;;;2.92;0.40;;;5.80;99.90;;;;;;4770980;30;20055;-82
2023/03/28 08:05:05;;;;;;;1.38;0.40;;;7.00;99.90;;;;;;4770668;30;20054;-84
2023/03/28 08:07:32;;;;;;;5.55;0.57;;;6.10;99.90;;;;;;4770493;30;20047;-84
2023/03/28 08:09:59;;;;;;;1.08;0.30;;;7.20;99.90;;;;;;4770555;30;20051;-83
2023/03/28 08:12:25;;;;;;;3.20;0.68;;;6.10;99.90;;;;;;4770550;30;20509;-83
2023/03/28 08:14:50;;;;;;;3.40;0.70;;;7.20;99.90;;;;;;4770615;30;20113;-83
2023/03/28 08:17:16;;;;;;;0.75;0.30;;;7.20;99.90;;;;;;4753854;30;20418;-83
2023/03/28 08:19:43;;;;;;;1.38;0.40;;;7.80;99.90;;;;;;4770434;30;20098;-84
2023/03/28 08:22:09;;;;;;;1.05;0.40;;;8.20;99.90;;;;;;4770372;30;20094;-88
2023/03/28 08:24:35;;;;;;;3.58;0.50;;;7.20;99.90;;;;;;4770115;30;20047;-83
2023/03/28 08:27:01;;;;;;;0.75;0.30;;;8.20;99.90;;;;;;4769743;30;20052;-84
2023/03/28 08:29:26;;;;;;;2.28;0.47;;;7.50;99.90;;;;;;4770642;30;20383;-83
2023/03/28 08:31:52;;;;;;;2.28;0.50;;;8.00;99.90;;;;;;4770384;30;20063;-88
2023/03/28 08:34:17;;;;;;;2.70;0.50;;;8.80;99.90;;;;;;4754198;30;20052;-84
2023/03/28 08:36:43;;;;;;;1.70;0.47;;;8.00;99.90;;;;;;4754400;30;20056;-84
2023/03/28 08:39:09;;;;;;;1.80;0.40;;;8.90;99.90;;;;;;4754784;30;20134;-85
2023/03/28 08:42:08;;;;;;;1.65;0.40;;;8.30;99.90;;;;;;4770035;30;20056;-83
2023/03/28 08:44:48;;;;;;;2.83;0.50;;;8.10;99.90;;;;;;4770813;30;20047;-83
2023/03/28 08:47:27;;;;;;;2.60;0.47;;;8.60;99.90;;;;;;4770131;30;20075;-84
2023/03/28 08:50:04;;;;;;;0.95;0.28;;;8.20;99.90;;;;;;4770319;30;20062;-83
2023/03/28 08:52:30;;;;;;;3.92;0.30;;;8.20;99.90;;;;;;4770307;30;20087;-83
2023/03/28 08:55:19;;;;;;;0.68;0.40;;;8.90;99.90;;;;;;4769964;30;20056;-85
2023/03/28 08:57:45;;;;;;;2.45;0.35;;;8.20;99.90;;;;;;4769676;30;20044;-84
2023/03/28 09:00:33;;;;;;;1.35;0.30;;;8.60;99.90;;;;;;4753914;30;20575;-84
2023/03/28 09:02:59;;;;;;;1.33;0.25;;;8.10;99.90;;;;;;4770060;30;20427;-85
2023/03/28 09:05:44;;;;;;;1.67;0.30;;;8.80;99.90;;;;;;4768887;30;20409;-83
2023/03/28 09:08:20;;;;;;;1.15;0.30;;;8.10;99.90;;;;;;4769585;30;20083;-83
2023/03/28 09:10:49;;;;;;;0.75;0.40;;;8.40;99.90;;;;;;4756557;30;20059;-84
2023/03/28 09:13:45;;;;;;;0.70;0.30;;;8.00;99.90;;;;;;4761344;30;20562;-83
2023/03/28 09:16:20;;;;;;;1.70;0.28;;;8.00;99.90;;;;;;4760962;30;20051;-86
2023/03/28 09:19:20;;;;;;;1.75;0.43;;;8.00;99.90;;;;;;4791314;30;20062;-85
2023/03/28 09:22:22;;;;;;;4.03;0.57;;;8.10;99.90;;;;;;4775096;30;20055;-86
2023/03/28 09:25:01;;;;;;;3.47;0.75;;;8.00;99.90;;;;;;4791107;30;20080;-86
2023/03/28 09:27:51;;;;;;;3.47;0.50;;;8.10;99.90;;;;;;4790178;30;20134;-85
2023/03/28 09:30:31;;;;;;;2.10;0.40;;;8.10;99.90;;;;;;4791208;30;20051;-85
2023/03/28 09:32:59;;;;;;;1.48;0.40;;;8.20;99.90;;;;;;4791062;30;20122;-84
2023/03/28 09:35:27;;;;;;;2.15;0.30;;;8.20;99.90;;;;;;4775037;30;20370;-85
2023/03/28 09:38:05;;;;;;;1.48;0.30;;;8.40;99.90;;;;;;4791417;30;20056;-84
2023/03/28 09:40:32;;;;;;;2.05;0.30;;;8.20;99.90;;;;;;4791047;30;20089;-85
2023/03/28 09:43:25;;;;;;;1.27;0.28;;;8.20;99.90;;;;;;4790960;30;20050;-85
2023/03/28 09:45:59;;;;;;;0.77;0.30;;;8.30;99.90;;;;;;4775025;30;20459;-85
2023/03/28 09:48:37;;;;;;;1.10;0.40;;;9.30;99.90;;;;;;4774652;30;20047;-85
2023/03/28 09:51:05;;;;;;;1.75;0.30;;;8.40;99.90;;;;;;4790906;30;20098;-86
2023/03/28 09:53:34;;;;;;;4.20;0.63;;;8.60;99.90;;;;;;4775073;30;20162;-85
2023/03/28 09:56:05;;;;;;;3.22;0.90;;;8.90;99.90;;;;;;4790709;30;20054;-85
2023/03/28 09:58:47;;;;;;;1.52;0.35;;;8.60;99.90;;;;;;4790609;29;20059;-85
2023/03/28 10:01:43;;;;;;;1.13;0.40;;;9.40;99.90;;;;;;4790917;30;20075;-85
2023/03/28 10:04:31;;;;;;;194.90;107.55;;;8.70;99.90;;;;;;4790265;30;20552;-88
2023/03/28 10:07:09;;;;;;;2.95;0.80;;;8.70;99.90;;;;;;4778387;30;20083;-85
2023/03/28 10:09:53;;;;;;;3.58;0.70;;;8.70;98.40;;;;;;4780546;30;20054;-84
2023/03/28 10:12:37;;;;;;;2.50;0.57;;;8.70;99.90;;;;;;4765939;30;20040;-85
2023/03/28 10:15:04;;;;;;;2.28;0.50;;;8.80;99.90;;;;;;4771801;30;20060;-86
2023/03/28 10:17:33;;;;;;;2.30;0.60;;;8.80;98.60;;;;;;4768252;30;20047;-85
2023/03/28 10:20:16;;;;;;;1.88;0.50;;;9.20;98.30;;;;;;4773756;30;20044;-85
2023/03/28 10:22:45;;;;;;;3.20;0.40;;;8.90;98.20;;;;;;4770893;30;20051;-86
2023/03/28 10:25:20;;;;;;;2.63;0.50;;;9.10;98.00;;;;;;4771381;30;20135;-87
2023/03/28 10:27:47;;;;;;;1.85;0.70;;;9.30;98.80;;;;;;4761474;30;20055;-85
2023/03/28 10:30:21;;;;;;;3.92;0.90;;;9.20;98.50;;;;;;4773033;30;20417;-86
2023/03/28 10:33:08;;;;;;;3.03;0.50;;;9.40;98.70;;;;;;4771968;30;20138;-86
2023/03/28 10:35:34;;;;;;;3.78;0.88;;;9.50;97.80;;;;;;4765039;30;20043;-86
2023/03/28 10:38:03;;;;;;;1.50;0.43;;;9.50;95.90;;;;;;4761576;30;20111;-85
2023/03/28 10:40:31;;;;;;;2.50;0.50;;;10.60;97.80;;;;;;4771971;30;20059;-85
2023/03/28 10:42:57;;;;;;;3.92;0.40;;;10.70;97.00;;;;;;4776788;30;20047;-85
2023/03/28 10:45:30;;;;;;;3.42;0.50;;;10.50;98.40;;;;;;4773397;30;20043;-86
2023/03/28 10:47:59;;;;;;;1.63;0.40;;;10.10;96.90;;;;;;4766979;30;20043;-86
2023/03/28 10:50:27;;;;;;;2.00;0.30;;;10.00;98.60;;;;;;4772261;30;20063;-85
2023/03/28 10:53:20;;;;;;;1.50;0.70;;;9.90;98.70;;;;;;4771398;30;20079;-85
2023/03/28 10:56:41;;;;;;;1.55;0.60;;;9.80;97.10;;;;;;4772024;30;20511;-85
2023/03/28 10:59:31;;;;;;;3.03;0.82;;;9.80;96.00;;;;;;4669007;30;20131;-85
2023/03/28 11:02:05;;;;;;;3.20;1.52;;;9.80;98.00;;;;;;4676977;30;20061;-86
2023/03/28 11:04:56;;;;;;;2.28;0.50;;;10.00;97.60;;;;;;4677374;30;20053;-86
2023/03/28 11:07:51;;;;;;;5.15;0.50;;;10.10;96.50;;;;;;4688297;30;20065;-86
2023/03/28 11:10:42;;;;;;;3.25;0.75;;;10.30;97.40;;;;;;4662110;30;20108;-84
2023/03/28 11:13:44;;;;;;;2.20;0.50;;;10.50;95.40;;;;;;4681258;30;20539;-85
2023/03/28 11:17:06;;;;;;;1.55;0.30;;;10.50;95.50;;;;;;4674228;30;20469;-87
2023/03/28 11:19:50;;;;;;;0.88;0.30;;;10.50;96.60;;;;;;4651812;30;20071;-85
2023/03/28 11:22:49;;;;;;;1.48;0.47;;;10.50;96.20;;;;;;4649158;30;20236;-85
2023/03/28 11:25:49;;;;;;;1.42;0.40;;;10.50;96.80;;;;;;4648708;30;20561;-84
2023/03/28 11:28:42;;;;;;;2.97;0.50;;;10.50;97.00;;;;;;4656777;30;20473;-86
2023/03/28 11:31:30;;;;;;;2.20;0.50;;;10.50;97.20;;;;;;4643511;30;20396;-85
2023/03/28 11:34:37;;;;;;;2.13;0.60;;;10.40;95.90;;;;;;4689626;30;20554;-85
2023/03/28 11:37:24;;;;;;;2.40;0.80;;;10.30;96.40;;;;;;4642207;30;20173;-87
2023/03/28 11:39:56;;;;;;;3.50;0.70;;;10.40;98.10;;;;;;4670027;30;20058;-86
2023/03/28 11:42:55;;;;;;;2.72;0.50;;;10.40;97.90;;;;;;4659273;30;20127;-86
2023/03/28 11:45:28;;;;;;;1.45;0.60;;;10.40;97.20;;;;;;4661538;30;20553;-86
2023/03/28 11:48:04;;;;;;;3.05;0.50;;;10.40;97.50;;;;;;4634958;30;20062;-86
2023/03/28 11:50:38;;;;;;;;;;;10.40;97.90;;;;;;4649259;30;20108;-86
2023/03/28 11:53:12;;;;;;;2.90;0.70;;;10.40;98.40;;;;;;4666104;30;19934;-87
2023/03/28 11:55:46;;;;;;;1.95;0.77;;;10.20;98.40;;;;;;4670256;30;20065;-87
2023/03/28 11:58:24;;;;;;;1.52;0.68;;;10.20;99.10;;;;;;4656418;30;20455;-85
2023/03/28 12:01:02;;;;;;;0.90;0.50;;;10.30;96.50;;;;;;4658757;30;20622;-85
2023/03/28 12:03:53;;;;;;;3.13;0.95;;;10.20;97.70;;;;;;4670094;30;20626;-86
2023/03/28 12:06:38;;;;;;;3.13;0.65;;;10.30;98.20;;;;;;4646357;30;20089;-87
2023/03/28 12:09:26;;;;;;;3.97;0.90;;;10.20;96.30;;;;;;4656257;30;20054;-85
2023/03/28 12:12:03;;;;;;;2.30;0.68;;;10.40;97.30;;;;;;4678704;30;20687;-86
2023/03/28 12:14:44;;;;;;;3.30;1.13;;;10.70;98.70;;;;;;4714603;30;20574;-86
2023/03/28 12:17:19;;;;;;;2.15;0.80;;;10.70;96.50;;;;;;4694666;30;20045;-85
2023/03/28 12:19:47;;;;;;;1.60;0.40;;;11.30;95.80;;;;;;4687945;30;20057;-88
2023/03/28 12:22:33;;;;;;;3.72;0.80;;;10.90;97.90;;;;;;4737738;30;20139;-86
2023/03/28 12:25:23;;;;;;;2.83;1.17;;;10.90;95.60;;;;;;4760581;30;20498;-88
2023/03/28 12:28:00;;;;;;;3.08;0.70;;;11.10;94.70;;;;;;4770049;30;20048;-88
2023/03/28 12:30:39;;;;;;;4.88;0.90;;;11.20;94.70;;;;;;4766664;30;20149;-86
2023/03/28 12:33:32;;;;;;;2.42;1.13;;;11.30;94.10;;;;;;4776844;30;20097;-88
2023/03/28 12:36:20;;;;;;;2.50;0.60;;;11.40;94.90;;;;;;4769673;30;20059;-87
2023/03/28 12:39:37;;;;;;;2.55;0.70;;;11.50;93.40;;;;;;4776689;30;20071;-85
2023/03/28 12:42:06;;;;;;;2.80;0.50;;;11.70;95.40;;;;;;4716805;30;20060;-85
2023/03/28 12:44:44;;;;;;;2.78;0.63;;;11.70;93.70;;;;;;4717184;30;20048;-86
2023/03/28 12:47:21;;;;;;;2.92;0.80;;;11.80;93.00;;;;;;4732327;30;20061;-84
2023/03/28 12:49:53;;;;;;;4.13;0.70;;;12.00;93.30;;;;;;4728831;30;20052;-88
2023/03/28 12:52:33;;;;;;;2.75;0.80;;;12.20;93.50;;;;;;4706469;30;21741;-86
2023/03/28 12:55:06;;;;;;;2.45;0.60;;;12.10;93.00;;;;;;4729746;30;20109;-86
2023/03/28 12:57:44;;;;;;;0.88;0.60;;;12.00;93.40;;;;;;4719532;30;20060;-90
2023/03/28 13:00:15;;;;;;;1.83;0.60;;;12.10;94.60;;;;;;4732442;30;20102;-85
2023/03/28 13:03:29;;;;;;;3.55;0.75;;;11.70;94.00;;;;;;4718418;30;20147;-88
2023/03/28 13:06:28;;;;;;;4.10;0.90;;;11.40;94.20;;;;;;4703937;30;20085;-86
2023/03/28 13:09:12;;;;;;;6.00;0.73;;;11.30;95.40;;;;;;4703306;30;20072;-86
2023/03/28 13:12:06;;;;;;;9.32;1.10;;;11.40;94.80;;;;;;4699487;30;20101;-87
2023/03/28 13:14:39;;;;;;;8.02;1.85;;;11.30;96.00;;;;;;4682331;30;20218;-86
2023/03/28 13:17:23;;;;;;;3.80;0.80;;;11.30;95.20;;;;;;4689794;30;20112;-88
2023/03/28 13:19:52;;;;;;;2.72;0.70;;;11.20;95.80;;;;;;4714019;30;20053;-85
2023/03/28 13:22:31;;;;;;;1.30;0.50;;;11.20;96.10;;;;;;4720443;30;20614;-85
2023/03/28 13:25:27;;;;;;;4.40;1.15;;;11.20;95.60;;;;;;4723248;30;20075;-88
2023/03/28 13:27:59;;;;;;;4.40;1.00;;;11.20;93.50;;;;;;4715785;30;20057;-86